createdAt,value
2023-01-20T00:00:36.847Z,1005.08
2023-01-20T00:01:36.708Z,1005.11
2023-01-20T00:02:36.645Z,1005.10
2023-01-20T00:03:36.630Z,1005.14
2023-01-20T00:04:36.503Z,1005.15
2023-01-20T00:05:36.431Z,1005.11
2023-01-20T00:06:36.357Z,1005.17
2023-01-20T00:07:36.295Z,1005.20
2023-01-20T00:08:36.219Z,1005.16
2023-01-20T00:09:36.147Z,1005.18
2023-01-20T00:10:36.079Z,1005.16
2023-01-20T00:11:36.015Z,1005.21
2023-01-20T00:12:35.941Z,1005.18
2023-01-20T00:13:35.882Z,1005.19
2023-01-20T00:14:35.798Z,1005.22
2023-01-20T00:15:35.734Z,1005.20
2023-01-20T00:16:35.665Z,1005.17
2023-01-20T00:17:35.605Z,1005.16
2023-01-20T00:18:35.540Z,1005.20
2023-01-20T00:19:35.450Z,1005.21
2023-01-20T00:20:35.387Z,1005.21
2023-01-20T00:21:35.321Z,1005.25
2023-01-20T00:22:35.267Z,1005.24
2023-01-20T00:23:35.165Z,1005.24
2023-01-20T00:24:35.106Z,1005.24
2023-01-20T00:25:35.030Z,1005.31
2023-01-20T00:26:34.964Z,1005.27
2023-01-20T00:27:34.888Z,1005.32
2023-01-20T00:28:34.873Z,1005.31
2023-01-20T00:29:34.748Z,1005.31
2023-01-20T00:30:34.705Z,1005.29
2023-01-20T00:31:34.720Z,1005.29
2023-01-20T00:32:34.539Z,1005.31
2023-01-20T00:33:34.467Z,1005.31
2023-01-20T00:34:34.397Z,1005.35
2023-01-20T00:35:34.329Z,1005.30
2023-01-20T00:36:34.286Z,1005.35
2023-01-20T00:37:34.191Z,1005.36
2023-01-20T00:38:34.120Z,1005.39
2023-01-20T00:39:34.052Z,1005.31
2023-01-20T00:40:33.982Z,1005.37
2023-01-20T00:41:33.913Z,1005.38
2023-01-20T00:42:33.843Z,1005.42
2023-01-20T00:43:33.785Z,1005.42
2023-01-20T00:44:33.701Z,1005.39
2023-01-20T00:45:33.631Z,1005.40
2023-01-20T00:46:33.575Z,1005.37
2023-01-20T00:47:33.487Z,1005.38
2023-01-20T00:48:33.426Z,1005.41
2023-01-20T00:49:33.352Z,1005.39
2023-01-20T00:50:33.278Z,1005.41
2023-01-20T00:51:33.209Z,1005.43
2023-01-20T00:52:33.143Z,1005.43
2023-01-20T00:53:33.070Z,1005.48
2023-01-20T00:54:33.001Z,1005.47
2023-01-20T00:55:32.940Z,1005.47
2023-01-20T00:56:32.862Z,1005.48
2023-01-20T00:57:32.788Z,1005.51
2023-01-20T00:58:32.724Z,1005.54
2023-01-20T00:59:32.650Z,1005.53
2023-01-20T01:00:32.609Z,1005.58
2023-01-20T01:01:32.545Z,1005.58
2023-01-20T01:02:32.477Z,1005.60
2023-01-20T01:03:32.365Z,1005.63
2023-01-20T01:04:32.300Z,1005.64
2023-01-20T01:05:32.231Z,1005.67
2023-01-20T01:06:32.159Z,1005.69
2023-01-20T01:07:32.089Z,1005.73
2023-01-20T01:08:32.025Z,1005.73
2023-01-20T01:09:31.953Z,1005.73
2023-01-20T01:10:31.885Z,1005.75
2023-01-20T01:11:31.804Z,1005.76
2023-01-20T01:12:31.741Z,1005.76
2023-01-20T01:13:31.675Z,1005.76
2023-01-20T01:14:31.596Z,1005.74
2023-01-20T01:15:31.535Z,1005.76
2023-01-20T01:16:31.488Z,1005.76
2023-01-20T01:17:31.385Z,1005.78
2023-01-20T01:18:31.316Z,1005.75
2023-01-20T01:19:31.248Z,1005.79
2023-01-20T01:20:31.191Z,1005.82
2023-01-20T01:21:31.119Z,1005.79
2023-01-20T01:22:31.035Z,1005.79
2023-01-20T01:23:30.962Z,1005.80
2023-01-20T01:24:30.901Z,1005.81
2023-01-20T01:25:30.823Z,1005.76
2023-01-20T01:26:30.761Z,1005.76
2023-01-20T01:27:30.691Z,1005.77
2023-01-20T01:28:30.619Z,1005.77
2023-01-20T01:29:30.551Z,1005.75
2023-01-20T01:30:30.523Z,1005.75
2023-01-20T01:31:30.451Z,1005.72
2023-01-20T01:32:30.346Z,1005.72
2023-01-20T01:33:30.263Z,1005.70
2023-01-20T01:34:30.198Z,1005.74
2023-01-20T01:35:30.120Z,1005.69
2023-01-20T01:36:30.063Z,1005.68
2023-01-20T01:37:29.983Z,1005.71
2023-01-20T01:38:29.914Z,1005.72
2023-01-20T01:39:29.842Z,1005.72
2023-01-20T01:40:29.790Z,1005.75
2023-01-20T01:41:29.702Z,1005.72
2023-01-20T01:42:29.635Z,1005.73
2023-01-20T01:43:29.563Z,1005.73
2023-01-20T01:44:29.517Z,1005.75
2023-01-20T01:45:29.451Z,1005.76
2023-01-20T01:46:29.352Z,1005.80
2023-01-20T01:47:29.287Z,1005.83
2023-01-20T01:48:29.207Z,1005.80
2023-01-20T01:49:29.134Z,1005.83
2023-01-20T01:50:29.067Z,1005.82
2023-01-20T01:51:28.994Z,1005.84
2023-01-20T01:52:28.941Z,1005.86
2023-01-20T01:53:28.861Z,1005.86
2023-01-20T01:54:28.790Z,1005.91
2023-01-20T01:55:28.714Z,1005.89
2023-01-20T01:56:28.657Z,1005.87
2023-01-20T01:57:28.589Z,1005.88
2023-01-20T01:58:28.510Z,1005.85
2023-01-20T01:59:28.437Z,1005.92
2023-01-20T02:00:28.385Z,1005.90
2023-01-20T02:01:28.374Z,1005.90
2023-01-20T02:02:28.289Z,1005.90
2023-01-20T02:03:28.158Z,1005.91
2023-01-20T02:04:28.081Z,1005.95
2023-01-20T02:05:28.015Z,1005.97
2023-01-20T02:06:27.944Z,1005.96
2023-01-20T02:07:27.872Z,1006.00
2023-01-20T02:08:27.799Z,1006.02
2023-01-20T02:09:27.775Z,1006.09
2023-01-20T02:10:27.666Z,1006.09
2023-01-20T02:11:27.585Z,1006.14
2023-01-20T02:12:27.517Z,1006.12
2023-01-20T02:13:27.460Z,1006.11
2023-01-20T02:14:27.381Z,1006.18
2023-01-20T02:15:27.303Z,1006.15
2023-01-20T02:16:27.255Z,1006.17
2023-01-20T02:17:27.177Z,1006.20
2023-01-20T02:18:27.101Z,1006.21
2023-01-20T02:19:27.026Z,1006.21
2023-01-20T02:20:26.954Z,1006.27
2023-01-20T02:21:26.879Z,1006.26
2023-01-20T02:22:26.811Z,1006.30
2023-01-20T02:23:26.742Z,1006.28
2023-01-20T02:24:26.671Z,1006.35
2023-01-20T02:25:26.627Z,1006.36
2023-01-20T02:26:26.536Z,1006.35
2023-01-20T02:27:26.465Z,1006.35
2023-01-20T02:28:26.410Z,1006.34
2023-01-20T02:29:26.327Z,1006.31
2023-01-20T02:30:26.257Z,1006.31
2023-01-20T02:31:26.196Z,1006.32
2023-01-20T02:32:26.110Z,1006.29
2023-01-20T02:33:26.038Z,1006.37
2023-01-20T02:34:25.970Z,1006.38
2023-01-20T02:35:25.900Z,1006.40
2023-01-20T02:36:25.828Z,1006.42
2023-01-20T02:37:25.757Z,1006.41
2023-01-20T02:38:25.688Z,1006.42
2023-01-20T02:39:27.293Z,1006.42
2023-01-20T02:40:25.550Z,1006.45
2023-01-20T02:41:25.473Z,1006.49
2023-01-20T02:42:25.411Z,1006.52
2023-01-20T02:43:25.334Z,1006.53
2023-01-20T02:44:25.299Z,1006.54
2023-01-20T02:45:25.193Z,1006.55
2023-01-20T02:46:25.123Z,1006.56
2023-01-20T02:47:25.061Z,1006.56
2023-01-20T02:48:25.001Z,1006.54
2023-01-20T02:49:24.950Z,1006.58
2023-01-20T02:50:24.844Z,1006.60
2023-01-20T02:51:24.781Z,1006.60
2023-01-20T02:52:24.708Z,1006.62
2023-01-20T02:53:24.631Z,1006.65
2023-01-20T02:54:24.564Z,1006.66
2023-01-20T02:55:24.490Z,1006.71
2023-01-20T02:56:24.423Z,1006.71
2023-01-20T02:57:24.350Z,1006.71
2023-01-20T02:58:24.285Z,1006.75
2023-01-20T02:59:24.207Z,1006.79
2023-01-20T03:00:24.137Z,1006.73
2023-01-20T03:01:24.126Z,1006.78
2023-01-20T03:02:24.000Z,1006.79
2023-01-20T03:03:23.972Z,1006.85
2023-01-20T03:04:23.856Z,1006.77
2023-01-20T03:05:23.843Z,1006.84
2023-01-20T03:06:23.726Z,1006.83
2023-01-20T03:07:23.650Z,1006.77
2023-01-20T03:08:23.571Z,1006.80
2023-01-20T03:09:23.505Z,1006.78
2023-01-20T03:10:23.433Z,1006.82
2023-01-20T03:11:23.367Z,1006.84
2023-01-20T03:12:23.292Z,1006.84
2023-01-20T03:13:23.225Z,1006.84
2023-01-20T03:14:23.156Z,1006.85
2023-01-20T03:15:23.087Z,1006.87
2023-01-20T03:16:23.028Z,1006.90
2023-01-20T03:17:22.935Z,1006.91
2023-01-20T03:18:22.866Z,1006.93
2023-01-20T03:19:22.800Z,1006.93
2023-01-20T03:20:22.726Z,1006.97
2023-01-20T03:21:22.658Z,1006.98
2023-01-20T03:22:22.595Z,1006.95
2023-01-20T03:23:22.548Z,1007.00
2023-01-20T03:24:22.446Z,1007.01
2023-01-20T03:25:22.394Z,1007.02
2023-01-20T03:26:22.302Z,1007.05
2023-01-20T03:27:22.256Z,1007.02
2023-01-20T03:28:22.165Z,1007.06
2023-01-20T03:29:22.100Z,1007.06
2023-01-20T03:30:22.028Z,1007.02
2023-01-20T03:31:22.096Z,1007.02
2023-01-20T03:32:21.883Z,1007.03
2023-01-20T03:33:21.811Z,1007.05
2023-01-20T03:34:21.768Z,1007.05
2023-01-20T03:35:21.669Z,1007.05
2023-01-20T03:36:21.602Z,1007.06
2023-01-20T03:37:21.530Z,1007.09
2023-01-20T03:38:21.457Z,1007.12
2023-01-20T03:39:21.390Z,1007.14
2023-01-20T03:40:21.333Z,1007.12
2023-01-20T03:41:21.256Z,1007.10
2023-01-20T03:42:21.176Z,1007.10
2023-01-20T03:43:21.132Z,1007.11
2023-01-20T03:44:21.036Z,1007.16
2023-01-20T03:45:20.976Z,1007.08
2023-01-20T03:46:20.893Z,1007.11
2023-01-20T03:47:20.832Z,1007.12
2023-01-20T03:48:20.794Z,1007.08
2023-01-20T03:49:20.693Z,1007.12
2023-01-20T03:50:20.627Z,1007.12
2023-01-20T03:51:20.547Z,1007.10
2023-01-20T03:52:20.471Z,1007.11
2023-01-20T03:53:20.409Z,1007.10
2023-01-20T03:54:20.330Z,1007.15
2023-01-20T03:55:20.284Z,1007.15
2023-01-20T03:56:20.205Z,1007.14
2023-01-20T03:57:20.134Z,1007.14
2023-01-20T03:58:20.047Z,1007.20
2023-01-20T03:59:19.999Z,1007.17
2023-01-20T04:00:19.933Z,1007.21
2023-01-20T04:01:19.975Z,1007.24
2023-01-20T04:02:19.914Z,1007.25
2023-01-20T04:03:19.746Z,1007.26
2023-01-20T04:04:19.634Z,1007.30
2023-01-20T04:05:19.564Z,1007.27
2023-01-20T04:06:19.485Z,1007.32
2023-01-20T04:07:19.434Z,1007.32
2023-01-20T04:08:19.341Z,1007.34
2023-01-20T04:09:19.274Z,1007.35
2023-01-20T04:10:19.233Z,1007.34
2023-01-20T04:11:19.137Z,1007.38
2023-01-20T04:12:19.061Z,1007.40
2023-01-20T04:13:18.992Z,1007.43
2023-01-20T04:14:18.921Z,1007.42
2023-01-20T04:15:18.862Z,1007.46
2023-01-20T04:16:18.812Z,1007.38
2023-01-20T04:17:18.713Z,1007.47
2023-01-20T04:18:18.637Z,1007.47
2023-01-20T04:19:18.568Z,1007.50
2023-01-20T04:20:18.501Z,1007.52
2023-01-20T04:21:18.430Z,1007.49
2023-01-20T04:22:18.363Z,1007.52
2023-01-20T04:23:18.293Z,1007.51
2023-01-20T04:24:18.216Z,1007.50
2023-01-20T04:25:18.152Z,1007.54
2023-01-20T04:26:18.073Z,1007.54
2023-01-20T04:27:18.010Z,1007.51
2023-01-20T04:28:17.945Z,1007.51
2023-01-20T04:29:17.864Z,1007.51
2023-01-20T04:30:17.796Z,1007.52
2023-01-20T04:31:29.693Z,1007.54
2023-01-20T04:32:17.650Z,1007.56
2023-01-20T04:33:17.585Z,1007.54
2023-01-20T04:34:17.508Z,1007.52
2023-01-20T04:35:17.480Z,1007.58
2023-01-20T04:36:17.368Z,1007.56
2023-01-20T04:37:17.299Z,1007.57
2023-01-20T04:38:17.230Z,1007.58
2023-01-20T04:39:17.161Z,1007.64
2023-01-20T04:40:17.089Z,1007.62
2023-01-20T04:41:17.021Z,1007.64
2023-01-20T04:42:16.946Z,1007.64
2023-01-20T04:43:16.876Z,1007.68
2023-01-20T04:44:16.806Z,1007.67
2023-01-20T04:45:17.164Z,1007.71
2023-01-20T04:46:16.693Z,1007.72
2023-01-20T04:47:16.596Z,1007.76
2023-01-20T04:48:16.527Z,1007.80
2023-01-20T04:49:16.454Z,1007.77
2023-01-20T04:50:16.415Z,1007.78
2023-01-20T04:51:16.335Z,1007.72
2023-01-20T04:52:16.249Z,1007.76
2023-01-20T04:53:16.173Z,1007.78
2023-01-20T04:54:16.104Z,1007.78
2023-01-20T04:55:16.342Z,1007.77
2023-01-20T04:56:15.992Z,1007.77
2023-01-20T04:57:15.891Z,1007.78
2023-01-20T04:58:15.822Z,1007.78
2023-01-20T04:59:15.754Z,1007.79
2023-01-20T05:00:15.683Z,1007.83
2023-01-20T05:01:15.663Z,1007.84
2023-01-20T05:02:15.731Z,1007.83
2023-01-20T05:03:15.469Z,1007.86
2023-01-20T05:04:15.408Z,1007.85
2023-01-20T05:05:15.666Z,1007.89
2023-01-20T05:06:15.258Z,1007.90
2023-01-20T05:07:15.199Z,1007.93
2023-01-20T05:08:15.117Z,1007.94
2023-01-20T05:09:15.048Z,1007.90
2023-01-20T05:10:14.986Z,1007.94
2023-01-20T05:11:14.909Z,1007.96
2023-01-20T05:12:14.836Z,1007.96
2023-01-20T05:13:14.779Z,1007.97
2023-01-20T05:14:14.694Z,1007.98
2023-01-20T05:15:14.945Z,1007.98
2023-01-20T05:16:14.602Z,1007.99
2023-01-20T05:17:14.491Z,1008.01
2023-01-20T05:18:14.419Z,1008.01
2023-01-20T05:19:14.345Z,1007.97
2023-01-20T05:20:14.284Z,1008.01
2023-01-20T05:21:14.205Z,1008.06
2023-01-20T05:22:14.139Z,1008.05
2023-01-20T05:23:14.069Z,1008.07
2023-01-20T05:24:13.990Z,1008.10
2023-01-20T05:25:14.218Z,1008.14
2023-01-20T05:26:13.851Z,1008.12
2023-01-20T05:27:13.782Z,1008.13
2023-01-20T05:28:13.711Z,1008.17
2023-01-20T05:29:13.640Z,1008.18
2023-01-20T05:30:13.571Z,1008.14
2023-01-20T05:31:13.637Z,1008.18
2023-01-20T05:32:13.425Z,1008.22
2023-01-20T05:33:13.356Z,1008.23
2023-01-20T05:34:13.286Z,1008.25
2023-01-20T05:35:13.531Z,1008.23
2023-01-20T05:36:13.151Z,1008.31
2023-01-20T05:37:13.077Z,1008.32
2023-01-20T05:38:13.016Z,1008.32
2023-01-20T05:39:12.937Z,1008.35
2023-01-20T05:40:12.863Z,1008.36
2023-01-20T05:41:12.799Z,1008.43
2023-01-20T05:42:12.723Z,1008.41
2023-01-20T05:43:13.163Z,1008.39
2023-01-20T05:44:12.581Z,1008.42
2023-01-20T05:45:12.916Z,1008.38
2023-01-20T05:46:12.493Z,1008.44
2023-01-20T05:47:12.379Z,1008.44
2023-01-20T05:48:12.297Z,1008.49
2023-01-20T05:49:12.229Z,1008.41
2023-01-20T05:50:12.156Z,1008.46
2023-01-20T05:51:12.120Z,1008.47
2023-01-20T05:52:12.016Z,1008.51
2023-01-20T05:53:11.948Z,1008.53
2023-01-20T05:54:11.875Z,1008.54
2023-01-20T05:55:11.902Z,1008.58
2023-01-20T05:56:11.776Z,1008.54
2023-01-20T05:57:11.668Z,1008.56
2023-01-20T05:58:11.598Z,1008.58
2023-01-20T05:59:11.523Z,1008.58
2023-01-20T06:00:11.452Z,1008.62
2023-01-20T06:01:11.426Z,1008.64
2023-01-20T06:02:11.315Z,1008.65
2023-01-20T06:03:11.256Z,1008.71
2023-01-20T06:04:11.179Z,1008.75
2023-01-20T06:05:11.101Z,1008.76
2023-01-20T06:06:11.044Z,1008.79
2023-01-20T06:07:10.966Z,1008.84
2023-01-20T06:08:10.889Z,1008.82
2023-01-20T06:09:10.837Z,1008.84
2023-01-20T06:10:10.762Z,1008.88
2023-01-20T06:11:10.685Z,1008.88
2023-01-20T06:12:10.612Z,1008.91
2023-01-20T06:13:10.535Z,1008.94
2023-01-20T06:14:10.470Z,1008.91
2023-01-20T06:15:10.395Z,1008.93
2023-01-20T06:16:10.334Z,1008.92
2023-01-20T06:17:10.264Z,1008.95
2023-01-20T06:18:10.183Z,1008.92
2023-01-20T06:19:10.116Z,1008.98
2023-01-20T06:20:10.048Z,1008.97
2023-01-20T06:21:09.973Z,1008.95
2023-01-20T06:22:09.905Z,1009.01
2023-01-20T06:23:09.834Z,1008.99
2023-01-20T06:24:09.765Z,1009.02
2023-01-20T06:25:09.690Z,1009.00
2023-01-20T06:26:09.616Z,1009.02
2023-01-20T06:27:09.550Z,1009.04
2023-01-20T06:28:09.476Z,1009.10
2023-01-20T06:29:09.410Z,1009.10
2023-01-20T06:30:09.342Z,1009.11
2023-01-20T06:31:09.390Z,1009.11
2023-01-20T06:32:09.193Z,1009.14
2023-01-20T06:33:09.123Z,1009.16
2023-01-20T06:34:09.054Z,1009.22
2023-01-20T06:35:11.238Z,1009.20
2023-01-20T06:36:08.920Z,1009.23
2023-01-20T06:37:08.850Z,1009.25
2023-01-20T06:38:08.774Z,1009.27
2023-01-20T06:39:08.700Z,1009.30
2023-01-20T06:40:08.631Z,1009.31
2023-01-20T06:41:08.560Z,1009.34
2023-01-20T06:42:08.491Z,1009.31
2023-01-20T06:43:08.418Z,1009.41
2023-01-20T06:44:08.356Z,1009.40
2023-01-20T06:45:08.283Z,1009.40
2023-01-20T06:46:08.290Z,1009.44
2023-01-20T06:47:08.139Z,1009.46
2023-01-20T06:48:08.068Z,1009.51
2023-01-20T06:49:07.994Z,1009.52
2023-01-20T06:50:07.922Z,1009.54
2023-01-20T06:51:07.856Z,1009.57
2023-01-20T06:52:07.781Z,1009.61
2023-01-20T06:53:07.723Z,1009.59
2023-01-20T06:54:07.659Z,1009.63
2023-01-20T06:55:07.571Z,1009.66
2023-01-20T06:56:07.502Z,1009.71
2023-01-20T06:57:07.433Z,1009.71
2023-01-20T06:58:07.357Z,1009.72
2023-01-20T06:59:07.293Z,1009.72
2023-01-20T07:00:07.226Z,1009.79
2023-01-20T07:01:07.275Z,1009.73
2023-01-20T07:02:07.209Z,1009.82
2023-01-20T07:03:07.006Z,1009.81
2023-01-20T07:04:06.944Z,1009.78
2023-01-20T07:05:06.865Z,1009.81
2023-01-20T07:06:06.796Z,1009.80
2023-01-20T07:07:06.728Z,1009.82
2023-01-20T07:08:06.649Z,1009.81
2023-01-20T07:09:06.588Z,1009.83
2023-01-20T07:10:06.508Z,1009.84
2023-01-20T07:11:06.443Z,1009.86
2023-01-20T07:12:06.371Z,1009.87
2023-01-20T07:13:06.306Z,1009.87
2023-01-20T07:14:06.227Z,1009.96
2023-01-20T07:15:06.156Z,1009.97
2023-01-20T07:16:06.126Z,1009.98
2023-01-20T07:17:06.022Z,1010.02
2023-01-20T07:18:05.943Z,1010.03
2023-01-20T07:19:05.873Z,1010.02
2023-01-20T07:20:05.805Z,1010.07
2023-01-20T07:21:05.735Z,1010.05
2023-01-20T07:22:05.664Z,1010.05
2023-01-20T07:23:05.646Z,1010.09
2023-01-20T07:24:05.520Z,1010.10
2023-01-20T07:25:05.455Z,1010.13
2023-01-20T07:26:05.386Z,1010.16
2023-01-20T07:27:05.313Z,1010.19
2023-01-20T07:28:05.241Z,1010.26
2023-01-20T07:29:05.168Z,1010.25
2023-01-20T07:30:05.106Z,1010.27
2023-01-20T07:31:05.026Z,1010.30
2023-01-20T07:32:04.966Z,1010.33
2023-01-20T07:33:04.883Z,1010.32
2023-01-20T07:34:04.813Z,1010.35
2023-01-20T07:35:04.743Z,1010.39
2023-01-20T07:36:04.669Z,1010.37
2023-01-20T07:37:04.606Z,1010.37
2023-01-20T07:38:04.545Z,1010.37
2023-01-20T07:39:04.462Z,1010.37
2023-01-20T07:40:04.390Z,1010.41
2023-01-20T07:41:05.179Z,1010.39
2023-01-20T07:42:04.248Z,1010.39
2023-01-20T07:43:04.178Z,1010.39
2023-01-20T07:44:04.107Z,1010.35
2023-01-20T07:45:04.032Z,1010.43
2023-01-20T07:46:04.012Z,1010.39
2023-01-20T07:47:03.893Z,1010.39
2023-01-20T07:48:03.846Z,1010.44
2023-01-20T07:49:03.755Z,1010.43
2023-01-20T07:50:03.678Z,1010.43
2023-01-20T07:51:03.609Z,1010.41
2023-01-20T07:52:03.560Z,1010.47
2023-01-20T07:53:03.467Z,1010.45
2023-01-20T07:54:03.402Z,1010.49
2023-01-20T07:55:03.335Z,1010.49
2023-01-20T07:56:03.274Z,1010.51
2023-01-20T07:57:03.182Z,1010.51
2023-01-20T07:58:03.112Z,1010.52
2023-01-20T07:59:03.043Z,1010.51
2023-01-20T08:00:02.971Z,1010.54
2023-01-20T08:01:03.058Z,1010.51
2023-01-20T08:02:02.942Z,1010.58
2023-01-20T08:03:02.771Z,1010.56
2023-01-20T08:04:02.689Z,1010.62
2023-01-20T08:05:02.645Z,1010.60
2023-01-20T08:06:02.571Z,1010.61
2023-01-20T08:07:02.479Z,1010.63
2023-01-20T08:08:02.408Z,1010.66
2023-01-20T08:09:02.333Z,1010.65
2023-01-20T08:10:02.278Z,1010.67
2023-01-20T08:11:02.215Z,1010.69
2023-01-20T08:12:02.122Z,1010.70
2023-01-20T08:13:02.044Z,1010.70
2023-01-20T08:14:01.987Z,1010.72
2023-01-20T08:15:01.927Z,1010.71
2023-01-20T08:16:01.844Z,1010.72
2023-01-20T08:17:01.764Z,1010.74
2023-01-20T08:18:01.721Z,1010.77
2023-01-20T08:19:01.640Z,1010.78
2023-01-20T08:20:01.569Z,1010.77
2023-01-20T08:21:01.491Z,1010.85
2023-01-20T08:22:01.424Z,1010.80
2023-01-20T08:23:01.344Z,1010.83
2023-01-20T08:24:01.278Z,1010.84
2023-01-20T08:25:01.199Z,1010.86
2023-01-20T08:26:01.128Z,1010.88
2023-01-20T08:27:01.143Z,1010.86
2023-01-20T08:28:00.988Z,1010.88
2023-01-20T08:29:00.955Z,1010.89
2023-01-20T08:30:00.851Z,1010.87
2023-01-20T08:31:00.968Z,1010.86
2023-01-20T08:32:00.703Z,1010.86
2023-01-20T08:33:00.637Z,1010.91
2023-01-20T08:34:00.563Z,1010.89
2023-01-20T08:35:00.489Z,1010.84
2023-01-20T08:36:00.424Z,1010.92
2023-01-20T08:37:00.347Z,1010.97
2023-01-20T08:38:00.287Z,1010.97
2023-01-20T08:39:00.216Z,1010.95
2023-01-20T08:40:00.142Z,1011.01
2023-01-20T08:41:00.103Z,1011.03
2023-01-20T08:41:59.999Z,1011.01
2023-01-20T08:42:59.927Z,1011.04
2023-01-20T08:43:59.853Z,1011.01
2023-01-20T08:44:59.788Z,1011.06
2023-01-20T08:45:59.789Z,1011.04
2023-01-20T08:46:59.648Z,1011.07
2023-01-20T08:47:59.583Z,1011.01
2023-01-20T08:48:59.500Z,1011.05
2023-01-20T08:49:59.431Z,1011.07
2023-01-20T08:50:59.370Z,1011.11
2023-01-20T08:51:59.291Z,1011.07
2023-01-20T08:52:59.223Z,1011.13
2023-01-20T08:53:59.154Z,1011.08
2023-01-20T08:54:59.080Z,1011.13
2023-01-20T08:55:59.011Z,1011.11
2023-01-20T08:56:58.956Z,1011.11
2023-01-20T08:57:58.864Z,1011.14
2023-01-20T08:58:58.836Z,1011.15
2023-01-20T08:59:58.726Z,1011.16
2023-01-20T09:00:58.700Z,1011.15
2023-01-20T09:01:58.589Z,1011.22
2023-01-20T09:02:58.513Z,1011.19
2023-01-20T09:04:05.744Z,1011.19
2023-01-20T09:04:58.370Z,1011.23
2023-01-20T09:05:58.302Z,1011.24
2023-01-20T09:06:58.230Z,1011.23
2023-01-20T09:07:58.160Z,1011.24
2023-01-20T09:08:58.087Z,1011.26
2023-01-20T09:09:58.033Z,1011.29
2023-01-20T09:10:57.949Z,1011.27
2023-01-20T09:11:57.890Z,1011.33
2023-01-20T09:12:57.809Z,1011.40
2023-01-20T09:13:57.743Z,1011.34
2023-01-20T09:14:57.678Z,1011.39
2023-01-20T09:15:57.681Z,1011.39
2023-01-20T09:16:57.520Z,1011.47
2023-01-20T09:17:57.453Z,1011.49
2023-01-20T09:18:57.384Z,1011.55
2023-01-20T09:19:57.309Z,1011.55
2023-01-20T09:20:57.281Z,1011.58
2023-01-20T09:21:57.173Z,1011.56
2023-01-20T09:22:57.102Z,1011.61
2023-01-20T09:23:57.027Z,1011.58
2023-01-20T09:24:56.958Z,1011.58
2023-01-20T09:25:56.886Z,1011.56
2023-01-20T09:26:56.831Z,1011.57
2023-01-20T09:27:56.748Z,1011.61
2023-01-20T09:28:56.675Z,1011.64
2023-01-20T09:29:56.606Z,1011.64
2023-01-20T09:30:56.674Z,1011.65
2023-01-20T09:31:56.534Z,1011.71
2023-01-20T09:32:56.497Z,1011.72
2023-01-20T09:33:56.322Z,1011.68
2023-01-20T09:34:56.257Z,1011.69
2023-01-20T09:35:56.188Z,1011.69
2023-01-20T09:36:56.116Z,1011.71
2023-01-20T09:37:56.041Z,1011.73
2023-01-20T09:38:55.971Z,1011.77
2023-01-20T09:39:55.900Z,1011.77
2023-01-20T09:40:55.825Z,1011.77
2023-01-20T09:41:55.758Z,1011.77
2023-01-20T09:42:55.706Z,1011.83
2023-01-20T09:43:55.626Z,1011.86
2023-01-20T09:44:55.544Z,1011.85
2023-01-20T09:45:55.503Z,1011.89
2023-01-20T09:46:55.416Z,1011.91
2023-01-20T09:47:55.335Z,1011.91
2023-01-20T09:48:55.263Z,1011.94
2023-01-20T09:49:55.195Z,1011.95
2023-01-20T09:50:55.124Z,1011.93
2023-01-20T09:51:55.058Z,1011.95
2023-01-20T09:52:54.985Z,1011.92
2023-01-20T09:53:54.911Z,1011.90
2023-01-20T09:54:54.841Z,1011.97
2023-01-20T09:55:54.774Z,1011.94
2023-01-20T09:56:54.705Z,1011.95
2023-01-20T09:57:54.645Z,1011.98
2023-01-20T09:58:54.557Z,1011.98
2023-01-20T09:59:54.493Z,1011.96
2023-01-20T10:00:54.427Z,1011.99
2023-01-20T10:01:54.463Z,1012.01
2023-01-20T10:02:54.356Z,1011.99
2023-01-20T10:03:54.227Z,1012.03
2023-01-20T10:04:54.146Z,1012.03
2023-01-20T10:05:54.067Z,1011.99
2023-01-20T10:06:54.006Z,1012.01
2023-01-20T10:07:53.928Z,1012.03
2023-01-20T10:09:04.971Z,1012.06
2023-01-20T10:09:53.816Z,1012.09
2023-01-20T10:10:53.715Z,1012.09
2023-01-20T10:11:53.642Z,1012.09
2023-01-20T10:12:53.588Z,1012.16
2023-01-20T10:13:53.506Z,1012.12
2023-01-20T10:14:55.386Z,1012.15
2023-01-20T10:15:53.409Z,1012.11
2023-01-20T10:16:53.296Z,1012.12
2023-01-20T10:17:53.222Z,1012.17
2023-01-20T10:18:53.158Z,1012.10
2023-01-20T10:19:53.081Z,1012.12
2023-01-20T10:20:53.010Z,1012.11
2023-01-20T10:21:52.951Z,1012.13
2023-01-20T10:22:52.873Z,1012.11
2023-01-20T10:23:52.803Z,1012.16
2023-01-20T10:24:52.730Z,1012.18
2023-01-20T10:25:52.659Z,1012.14
2023-01-20T10:26:52.640Z,1012.21
2023-01-20T10:27:52.523Z,1012.16
2023-01-20T10:28:52.454Z,1012.16
2023-01-20T10:29:52.385Z,1012.20
2023-01-20T10:30:52.429Z,1012.20
2023-01-20T10:31:52.306Z,1012.22
2023-01-20T10:32:52.185Z,1012.18
2023-01-20T10:33:52.103Z,1012.21
2023-01-20T10:34:52.045Z,1012.20
2023-01-20T10:35:51.970Z,1012.16
2023-01-20T10:36:51.896Z,1012.20
2023-01-20T10:37:51.823Z,1012.21
2023-01-20T10:38:51.755Z,1012.20
2023-01-20T10:39:51.681Z,1012.21
2023-01-20T10:40:51.657Z,1012.23
2023-01-20T10:41:51.549Z,1012.25
2023-01-20T10:42:51.475Z,1012.24
2023-01-20T10:43:51.413Z,1012.19
2023-01-20T10:44:51.340Z,1012.24
2023-01-20T10:45:51.266Z,1012.22
2023-01-20T10:46:51.218Z,1012.24
2023-01-20T10:47:51.124Z,1012.26
2023-01-20T10:48:51.062Z,1012.26
2023-01-20T10:49:50.988Z,1012.28
2023-01-20T10:50:50.989Z,1012.25
2023-01-20T10:51:50.849Z,1012.30
2023-01-20T10:52:50.814Z,1012.26
2023-01-20T10:53:50.710Z,1012.28
2023-01-20T10:54:50.637Z,1012.25
2023-01-20T10:55:50.567Z,1012.30
2023-01-20T10:56:50.505Z,1012.28
2023-01-20T10:57:50.445Z,1012.29
2023-01-20T10:58:50.356Z,1012.28
2023-01-20T10:59:50.313Z,1012.29
2023-01-20T11:00:50.241Z,1012.29
2023-01-20T11:01:56.231Z,1012.29
2023-01-20T11:02:50.105Z,1012.32
2023-01-20T11:03:50.023Z,1012.32
2023-01-20T11:04:49.961Z,1012.33
2023-01-20T11:05:49.879Z,1012.33
2023-01-20T11:06:49.842Z,1012.31
2023-01-20T11:07:49.732Z,1012.38
2023-01-20T11:08:49.668Z,1012.37
2023-01-20T11:09:49.615Z,1012.36
2023-01-20T11:10:49.543Z,1012.39
2023-01-20T11:11:49.472Z,1012.40
2023-01-20T11:12:49.381Z,1012.41
2023-01-20T11:13:49.314Z,1012.43
2023-01-20T11:14:49.244Z,1012.41
2023-01-20T11:15:49.225Z,1012.41
2023-01-20T11:16:49.139Z,1012.43
2023-01-20T11:17:49.036Z,1012.48
2023-01-20T11:18:48.964Z,1012.48
2023-01-20T11:19:48.913Z,1012.45
2023-01-20T11:20:48.825Z,1012.47
2023-01-20T11:21:48.765Z,1012.48
2023-01-20T11:22:48.703Z,1012.46
2023-01-20T11:23:48.636Z,1012.43
2023-01-20T11:24:48.546Z,1012.44
2023-01-20T11:25:48.479Z,1012.44
2023-01-20T11:26:48.407Z,1012.47
2023-01-20T11:27:48.344Z,1012.49
2023-01-20T11:28:48.277Z,1012.52
2023-01-20T11:29:48.213Z,1012.50
2023-01-20T11:30:48.152Z,1012.50
2023-01-20T11:31:48.115Z,1012.49
2023-01-20T11:32:47.992Z,1012.50
2023-01-20T11:33:47.930Z,1012.51
2023-01-20T11:34:47.854Z,1012.52
2023-01-20T11:35:47.792Z,1012.48
2023-01-20T11:36:47.724Z,1012.51
2023-01-20T11:37:47.653Z,1012.49
2023-01-20T11:38:47.593Z,1012.50
2023-01-20T11:39:47.526Z,1012.47
2023-01-20T11:40:47.437Z,1012.50
2023-01-20T11:41:47.368Z,1012.49
2023-01-20T11:42:47.309Z,1012.50
2023-01-20T11:43:47.231Z,1012.55
2023-01-20T11:44:47.160Z,1012.51
2023-01-20T11:45:47.097Z,1012.54
2023-01-20T11:46:47.053Z,1012.52
2023-01-20T11:47:46.954Z,1012.56
2023-01-20T11:48:46.894Z,1012.56
2023-01-20T11:49:46.818Z,1012.51
2023-01-20T11:50:46.825Z,1012.54
2023-01-20T11:51:46.727Z,1012.54
2023-01-20T11:52:46.605Z,1012.55
2023-01-20T11:53:46.541Z,1012.54
2023-01-20T11:54:46.479Z,1012.51
2023-01-20T11:55:46.404Z,1012.54
2023-01-20T11:56:46.351Z,1012.57
2023-01-20T11:57:46.264Z,1012.58
2023-01-20T11:58:46.187Z,1012.61
2023-01-20T11:59:46.132Z,1012.62
2023-01-20T12:00:46.050Z,1012.66
2023-01-20T12:01:46.018Z,1012.64
2023-01-20T12:02:45.920Z,1012.59
2023-01-20T12:03:45.849Z,1012.58
2023-01-20T12:04:45.813Z,1012.64